createdAt,value
2022-09-13T00:03:17.756Z,11.80
2022-09-13T00:07:19.779Z,11.80
2022-09-13T00:11:25.561Z,11.70
2022-09-13T00:15:28.674Z,11.60
2022-09-13T00:19:30.889Z,11.60
2022-09-13T00:23:33.951Z,11.60
2022-09-13T00:27:37.025Z,11.50
2022-09-13T00:31:39.296Z,11.50
2022-09-13T00:35:41.801Z,11.40
2022-09-13T00:39:46.894Z,11.40
2022-09-13T00:44:00.529Z,11.40
2022-09-13T00:48:07.722Z,11.30
2022-09-13T00:52:14.811Z,11.30
2022-09-13T00:56:23.505Z,11.20
2022-09-13T01:00:25.960Z,11.20
2022-09-13T01:04:30.420Z,11.10
2022-09-13T01:08:34.520Z,11.10
2022-09-13T01:13:02.121Z,11.10
2022-09-13T01:17:05.334Z,11.10
2022-09-13T01:21:23.044Z,11.00
2022-09-13T01:26:00.610Z,10.90
2022-09-13T01:30:16.810Z,11.00
2022-09-13T01:34:45.387Z,10.90
2022-09-13T01:39:08.417Z,10.80
2022-09-13T01:43:20.650Z,10.90
2022-09-13T01:47:30.146Z,10.90
2022-09-13T01:51:39.108Z,10.80
2022-09-13T01:55:56.452Z,10.80
2022-09-13T02:00:04.737Z,10.80
2022-09-13T02:04:24.714Z,10.70
2022-09-13T02:08:46.058Z,10.70
2022-09-13T02:12:50.188Z,10.70
2022-09-13T02:17:13.805Z,10.60
2022-09-13T02:21:24.527Z,10.60
2022-09-13T02:25:28.817Z,10.60
2022-09-13T02:29:33.139Z,10.50
2022-09-13T02:33:45.132Z,10.40
2022-09-13T02:37:52.868Z,10.50
2022-09-13T02:42:14.626Z,10.50
2022-09-13T02:46:37.565Z,10.40
2022-09-13T02:50:58.836Z,10.40
2022-09-13T02:55:14.538Z,10.40
2022-09-13T02:59:19.688Z,10.30
2022-09-13T03:03:22.095Z,10.30
2022-09-13T03:07:24.174Z,10.30
2022-09-13T03:12:07.932Z,10.30
2022-09-13T03:16:34.927Z,10.30
2022-09-13T03:20:43.352Z,10.20
2022-09-13T03:25:22.320Z,10.20
2022-09-13T03:29:53.606Z,10.20
2022-09-13T03:34:17.573Z,10.20
2022-09-13T03:38:27.109Z,10.10
2022-09-13T03:42:38.066Z,10.10
2022-09-13T03:46:47.205Z,10.10
2022-09-13T03:50:50.940Z,10.10
2022-09-13T03:54:54.431Z,10.00
2022-09-13T03:58:56.840Z,10.00
2022-09-13T04:02:59.172Z,10.00
2022-09-13T04:07:04.467Z,9.90
2022-09-13T04:11:06.586Z,10.00
2022-09-13T04:15:09.107Z,9.90
2022-09-13T04:19:14.245Z,10.00
2022-09-13T04:23:16.304Z,10.00
2022-09-13T04:27:18.358Z,10.00
2022-09-13T04:31:20.582Z,10.00
2022-09-13T04:35:26.184Z,10.20
2022-09-13T04:39:31.192Z,10.60
2022-09-13T04:43:33.347Z,11.40
2022-09-13T04:47:35.507Z,12.50
2022-09-13T04:51:37.809Z,13.60
2022-09-13T04:55:40.247Z,14.90
2022-09-13T04:59:43.275Z,16.50
2022-09-13T05:03:45.429Z,18.10
2022-09-13T05:07:51.488Z,19.60
2022-09-13T05:11:53.937Z,20.80
2022-09-13T05:15:57.420Z,20.00
2022-09-13T05:20:00.006Z,18.90
2022-09-13T05:24:02.401Z,18.00
2022-09-13T05:28:04.942Z,17.30
2022-09-13T05:32:06.897Z,16.80
2022-09-13T05:36:09.104Z,16.50
2022-09-13T05:40:12.574Z,16.20
2022-09-13T05:44:24.359Z,16.10
2022-09-13T05:48:26.250Z,16.00
2022-09-13T05:52:28.493Z,15.80
2022-09-13T05:56:32.347Z,15.80
2022-09-13T06:00:34.875Z,15.70
2022-09-13T06:04:37.017Z,15.60
2022-09-13T06:08:39.428Z,15.60
2022-09-13T06:12:41.505Z,15.50
2022-09-13T06:16:43.807Z,15.60
2022-09-13T06:20:51.452Z,15.90
2022-09-13T06:24:53.791Z,16.10
2022-09-13T06:28:58.250Z,16.10
2022-09-13T06:33:00.326Z,16.00
2022-09-13T06:37:03.236Z,15.90
2022-09-13T06:41:09.893Z,16.00
2022-09-13T06:45:12.170Z,15.90
2022-09-13T06:49:14.141Z,16.00
2022-09-13T06:53:16.325Z,16.00
2022-09-13T06:57:18.498Z,16.10
2022-09-13T07:01:32.408Z,16.20
2022-09-13T07:05:37.232Z,16.30
2022-09-13T07:09:39.536Z,16.50
2022-09-13T07:19:02.882Z,16.80
2022-09-13T07:27:44.789Z,17.10
2022-09-13T08:35:13.844Z,19.10
2022-09-13T08:46:25.632Z,19.40
2022-09-13T08:50:56.486Z,19.40
2022-09-13T09:28:43.258Z,20.30
2022-09-13T09:33:20.758Z,20.50
2022-09-13T09:37:26.350Z,20.70
2022-09-13T11:00:36.450Z,20.70
2022-09-13T11:04:50.705Z,20.60
2022-09-13T11:09:08.493Z,20.60
2022-09-13T11:13:53.093Z,20.80
2022-09-13T11:18:20.415Z,21.00
2022-09-13T11:28:02.877Z,21.40
2022-09-13T11:37:24.154Z,21.60
2022-09-13T11:41:52.669Z,21.70
2022-09-13T12:02:39.166Z,22.00
2022-09-13T12:06:44.658Z,22.00
2022-09-13T12:10:50.231Z,21.80
2022-09-13T12:15:01.284Z,21.90
2022-09-13T12:19:35.789Z,22.00
2022-09-13T12:23:42.981Z,22.10
2022-09-13T12:28:09.844Z,22.10
2022-09-13T12:32:22.542Z,22.10
2022-09-13T12:37:05.446Z,22.10
2022-09-13T12:41:17.662Z,22.10
2022-09-13T12:45:50.931Z,22.30
2022-09-13T12:50:43.954Z,22.60
2022-09-13T12:54:33.976Z,23.10
2022-09-13T12:58:49.907Z,23.50
2022-09-13T13:03:22.316Z,23.60
2022-09-13T13:07:25.783Z,23.60
2022-09-13T13:11:47.886Z,23.80
2022-09-13T13:15:50.384Z,23.70
2022-09-13T13:19:52.820Z,23.70
2022-09-13T13:24:18.366Z,23.90
2022-09-13T13:28:48.381Z,23.90
2022-09-13T13:33:29.346Z,23.90
2022-09-13T13:37:35.606Z,24.10
2022-09-13T13:41:48.600Z,24.10
2022-09-13T13:46:18.810Z,24.10
2022-09-13T13:50:21.352Z,24.10
2022-09-13T13:54:47.986Z,23.80
2022-09-13T13:59:12.733Z,23.60
2022-09-13T14:03:34.492Z,23.60
2022-09-13T14:08:01.432Z,23.40
2022-09-13T14:12:19.086Z,23.10
2022-09-13T14:16:37.182Z,22.90
2022-09-13T14:20:57.765Z,22.70
2022-09-13T14:25:17.008Z,22.60
2022-09-13T14:29:21.920Z,22.40
2022-09-13T14:33:34.913Z,22.30
2022-09-13T14:37:38.603Z,22.20
2022-09-13T14:41:41.411Z,22.10
2022-09-13T14:45:49.613Z,22.00
2022-09-13T14:50:04.282Z,21.90
2022-09-13T14:54:35.731Z,21.80
2022-09-13T14:58:48.681Z,21.70
2022-09-13T15:02:54.311Z,21.60
2022-09-13T15:07:30.885Z,21.50
2022-09-13T15:11:36.807Z,21.40
2022-09-13T15:15:41.279Z,21.30
2022-09-13T15:19:52.487Z,21.20
2022-09-13T15:23:55.851Z,21.10
2022-09-13T15:28:00.259Z,21.10
2022-09-13T15:32:02.833Z,21.00
2022-09-13T15:36:20.581Z,20.90
2022-09-13T15:40:22.915Z,20.90
2022-09-13T15:44:26.265Z,20.90
2022-09-13T15:48:34.349Z,20.90
2022-09-13T15:52:37.045Z,20.80
2022-09-13T15:56:42.906Z,20.70
2022-09-13T16:00:45.108Z,20.60
2022-09-13T16:04:47.839Z,20.40
2022-09-13T16:08:50.269Z,20.40
2022-09-13T16:12:55.476Z,20.30
2022-09-13T16:17:00.122Z,20.20
2022-09-13T16:21:02.150Z,20.20
2022-09-13T16:25:06.334Z,20.10
2022-09-13T16:29:11.306Z,20.10
2022-09-13T16:33:14.933Z,20.00
2022-09-13T16:37:19.238Z,19.90
2022-09-13T16:41:21.527Z,19.80
2022-09-13T16:45:24.049Z,19.80
2022-09-13T16:49:27.520Z,19.70
2022-09-13T16:53:33.071Z,19.60
2022-09-13T16:57:36.511Z,19.50
2022-09-13T17:01:39.499Z,19.40
2022-09-13T17:05:41.717Z,19.30
2022-09-13T17:09:44.650Z,19.20
2022-09-13T17:13:47.319Z,19.00
2022-09-13T17:17:51.395Z,18.80
2022-09-13T17:21:58.023Z,18.70
2022-09-13T17:26:00.210Z,18.60
2022-09-13T17:30:06.133Z,18.50
2022-09-13T17:34:08.752Z,18.40
2022-09-13T17:38:11.689Z,18.30
2022-09-13T17:42:20.041Z,18.30
2022-09-13T17:46:27.964Z,18.20
2022-09-13T17:50:33.037Z,18.20
2022-09-13T17:54:37.325Z,18.10
2022-09-13T17:58:39.421Z,18.10
2022-09-13T18:02:45.017Z,18.10
2022-09-13T18:06:51.876Z,18.00
2022-09-13T18:11:12.345Z,18.00
2022-09-13T18:15:15.460Z,18.00
2022-09-13T18:19:29.887Z,18.00
2022-09-13T18:23:42.618Z,17.90
2022-09-13T18:27:47.125Z,17.90
2022-09-13T18:31:49.057Z,17.90
2022-09-13T18:36:01.139Z,17.80
2022-09-13T18:40:06.825Z,17.80
2022-09-13T18:44:12.883Z,17.70
2022-09-13T18:48:15.093Z,17.70
2022-09-13T18:52:18.195Z,17.70
2022-09-13T18:56:23.458Z,17.60
2022-09-13T19:00:28.666Z,17.60
2022-09-13T19:04:32.193Z,17.50
2022-09-13T19:08:34.476Z,17.50
2022-09-13T19:12:36.841Z,17.50
2022-09-13T19:16:41.362Z,17.30
2022-09-13T19:20:44.690Z,17.30
2022-09-13T19:24:52.289Z,17.20
2022-09-13T19:29:01.718Z,17.20
2022-09-13T19:33:13.864Z,17.10
2022-09-13T19:37:18.418Z,17.00
2022-09-13T19:41:26.703Z,16.90
2022-09-13T19:45:31.883Z,16.80
2022-09-13T19:49:34.268Z,16.80
2022-09-13T19:53:56.086Z,16.80
2022-09-13T19:58:00.347Z,16.70
2022-09-13T20:02:03.098Z,16.70
2022-09-13T20:06:08.671Z,16.70
2022-09-13T20:10:11.103Z,16.80
2022-09-13T20:14:17.608Z,16.80
2022-09-13T20:18:20.900Z,16.80
2022-09-13T20:22:25.198Z,16.80
2022-09-13T20:26:28.676Z,16.80
2022-09-13T20:30:31.111Z,16.80
2022-09-13T20:34:41.325Z,16.80
2022-09-13T20:38:50.694Z,16.80
2022-09-13T20:42:53.653Z,16.70
2022-09-13T20:47:01.353Z,16.70
2022-09-13T20:51:08.983Z,16.60
2022-09-13T20:55:13.049Z,16.60
2022-09-13T20:59:22.039Z,16.60
2022-09-13T21:03:24.734Z,16.50
2022-09-13T21:07:45.888Z,16.50
2022-09-13T21:11:53.527Z,16.40
2022-09-13T21:16:05.756Z,16.40
2022-09-13T21:20:09.604Z,16.40
2022-09-13T21:24:14.462Z,16.30
2022-09-13T21:28:23.149Z,16.30
2022-09-13T21:32:26.542Z,16.30
2022-09-13T21:36:44.265Z,16.20
2022-09-13T21:41:02.877Z,16.20
2022-09-13T21:45:08.027Z,16.20
2022-09-13T21:49:13.588Z,16.20
2022-09-13T21:53:17.259Z,16.20
2022-09-13T21:57:21.566Z,16.20
2022-09-13T22:01:25.976Z,16.30
2022-09-13T22:05:31.189Z,16.30
2022-09-13T22:09:35.168Z,16.30
2022-09-13T22:13:47.653Z,16.30
2022-09-13T22:18:02.681Z,16.40
2022-09-13T22:22:09.154Z,16.40
2022-09-13T22:30:43.190Z,16.40
2022-09-13T22:34:47.424Z,16.40
2022-09-13T22:38:55.171Z,16.40
2022-09-13T22:43:04.429Z,16.40
2022-09-13T22:47:12.323Z,16.40
2022-09-13T22:51:25.415Z,16.40
2022-09-13T22:55:32.874Z,16.40
2022-09-13T22:59:36.157Z,16.40
2022-09-13T23:03:42.713Z,16.40
2022-09-13T23:16:51.826Z,16.30
2022-09-13T23:21:00.670Z,16.30
2022-09-13T23:29:22.405Z,16.30
2022-09-13T23:33:29.413Z,16.30
2022-09-13T23:37:41.263Z,16.30
2022-09-13T23:41:44.929Z,16.40
2022-09-13T23:54:27.033Z,16.40
